This is the latest recevied weather packets stored in our database for station/object 9M2IBR-1. If no packets are shown the sender has not sent any weather packets the latest 10 day(s).
| Time | Temp. | Humidity | Pressure | Rain* | Wind** | Luminosity | Snow |
|---|---|---|---|---|---|---|---|
| 1777347630 | 33.89° C | 68% | 1008.5 hPa | 0 mm | - | 740 W/m² | - |
| 1777347327 | 33.89° C | 69% | 1008.6 hPa | 0 mm | - | 744 W/m² | - |
| 1777342530 | 31.67° C | 77% | 1009.2 hPa | 0 mm | - | 585 W/m² | - |
| 1777341921 | 31.11° C | 78% | 1009.2 hPa | 0 mm | - | 540 W/m² | - |
| 1777341051 | 30° C | 81% | 1009.2 hPa | 0 mm | - | 474 W/m² | - |
| 1777340461 | 30° C | 83% | 1009.1 hPa | 0 mm | - | 378 W/m² | - |
| 1777337119 | 27.78° C | 88% | 1008.5 hPa | 0 mm | - | 203 W/m² | - |
| 1777336817 | 27.78° C | 88% | 1008.4 hPa | 0 mm | - | 188 W/m² | - |
| 1777336228 | 27.22° C | 90% | 1008.1 hPa | 0 mm | - | 152 W/m² | - |
| 1777335322 | 25.56° C | 94% | 1007.9 hPa | 0 mm | - | 110 W/m² | - |
| 1777335061 | 25.56° C | 95% | 1007.7 hPa | 0 mm | - | 95 W/m² | - |
| 1777334718 | 25° C | 97% | 1007.7 hPa | 0 mm | - | 77 W/m² | - |
| 1777334129 | 24.44° C | 98% | 1007.4 hPa | 0 mm | - | 62 W/m² | - |
| 1777329046 | 23.89° C | 98% | 1006.6 hPa | 0 mm | - | 0 W/m² | - |
| 1777327230 | 23.89° C | 98% | 1006.3 hPa | 0 mm | - | 0 W/m² | - |
| 1777315853 | 24.44° C | 96% | 1006.8 hPa | 0 mm | - | 0 W/m² | - |
| 1777314640 | 25° C | 95% | 1007.1 hPa | 0 mm | - | 0 W/m² | - |
| 1777313427 | 25° C | 95% | 1007.5 hPa | 0 mm | - | 0 W/m² | - |
| 1777312823 | 24.44° C | 96% | 1007.6 hPa | 0 mm | - | 0 W/m² | - |
| 1777307417 | 25° C | 95% | 1009 hPa | 0 mm | - | 0 W/m² | - |
| 1777306546 | 25° C | 95% | 1009 hPa | 0 mm | - | 0 W/m² | - |
| 1777304729 | 25.56° C | 94% | 1009.1 hPa | 0 mm | - | 0 W/m² | - |
| 1777304427 | 25.56° C | 94% | 1008.8 hPa | 0 mm | - | 0 W/m² | - |
| 1777304125 | 25.56° C | 94% | 1008.8 hPa | 0 mm | - | 0 W/m² | - |
| 1777302031 | 25.56° C | 92% | 1008.8 hPa | 0 mm | - | 0 W/m² | - |
* Rain latest hour (hover to see other rain measurements)
** Current wind speed in m/s (hover to see current wind gust speed)